createdAt,value
2018-05-31T00:01:13.470Z,83.90
2018-05-31T00:03:40.918Z,86.90
2018-05-31T00:06:09.118Z,84.70
2018-05-31T00:08:36.556Z,84.70
2018-05-31T00:11:04.012Z,85.20
2018-05-31T00:13:31.450Z,86.40
2018-05-31T00:15:58.899Z,87.20
2018-05-31T00:18:26.347Z,86.60
2018-05-31T00:20:53.830Z,87.80
2018-05-31T00:23:21.264Z,86.10
2018-05-31T00:25:48.723Z,82.60
2018-05-31T00:28:16.931Z,86.40
2018-05-31T00:30:44.378Z,86.30
2018-05-31T00:33:11.827Z,85.20
2018-05-31T00:35:39.280Z,81.90
2018-05-31T00:38:06.726Z,83.70
2018-05-31T00:40:34.185Z,83.00
2018-05-31T00:43:01.633Z,84.90
2018-05-31T00:45:29.063Z,86.90
2018-05-31T00:47:56.499Z,85.20
2018-05-31T00:50:23.945Z,86.00
2018-05-31T00:52:51.387Z,85.40
2018-05-31T00:55:30.619Z,83.80
2018-05-31T00:57:58.827Z,85.70
2018-05-31T01:00:26.266Z,85.60
2018-05-31T01:02:53.709Z,87.10
2018-05-31T01:05:21.162Z,86.40
2018-05-31T01:07:48.606Z,86.90
2018-05-31T01:10:16.075Z,87.90
2018-05-31T01:12:43.520Z,89.50
2018-05-31T01:15:10.979Z,90.00
2018-05-31T01:17:38.407Z,88.70
2018-05-31T01:20:05.848Z,89.10
2018-05-31T01:22:33.284Z,89.20
2018-05-31T01:25:00.739Z,89.60
2018-05-31T01:27:28.186Z,89.70
2018-05-31T01:29:55.631Z,89.40
2018-05-31T01:32:23.079Z,88.60
2018-05-31T01:34:50.523Z,87.60
2018-05-31T01:37:18.730Z,86.10
2018-05-31T01:39:46.189Z,86.10
2018-05-31T01:42:13.638Z,87.40
2018-05-31T01:44:41.083Z,88.10
2018-05-31T01:47:08.525Z,88.90
2018-05-31T01:49:35.988Z,89.30
2018-05-31T01:52:03.504Z,89.80
2018-05-31T01:54:30.955Z,89.30
2018-05-31T01:56:58.407Z,88.40
2018-05-31T01:59:26.602Z,88.40
2018-05-31T02:01:54.042Z,88.50
2018-05-31T02:04:22.258Z,88.10
2018-05-31T02:06:49.690Z,88.20
2018-05-31T02:09:17.150Z,87.30
2018-05-31T02:11:44.593Z,86.10
2018-05-31T02:14:12.018Z,86.70
2018-05-31T02:16:39.465Z,86.40
2018-05-31T02:19:06.906Z,86.50
2018-05-31T02:21:34.354Z,86.00
2018-05-31T02:24:01.812Z,85.40
2018-05-31T02:26:29.248Z,84.00
2018-05-31T02:28:56.689Z,84.80
2018-05-31T02:31:24.147Z,85.80
2018-05-31T02:33:51.576Z,87.20
2018-05-31T02:36:19.024Z,87.10
2018-05-31T02:38:46.460Z,86.30
2018-05-31T02:41:13.897Z,86.40
2018-05-31T02:43:41.335Z,86.50
2018-05-31T02:46:08.786Z,84.80
2018-05-31T02:48:36.220Z,84.80
2018-05-31T02:51:03.666Z,84.10
2018-05-31T02:53:31.108Z,85.20
2018-05-31T02:55:58.602Z,84.70
2018-05-31T02:58:26.050Z,84.60
2018-05-31T03:00:54.259Z,84.60
2018-05-31T03:03:21.689Z,84.50
2018-05-31T03:05:49.158Z,84.80
2018-05-31T03:08:16.595Z,84.60
2018-05-31T03:10:44.071Z,84.00
2018-05-31T03:13:12.276Z,83.00
2018-05-31T03:15:39.715Z,83.00
2018-05-31T03:18:07.161Z,83.50
2018-05-31T03:20:34.616Z,83.20
2018-05-31T03:23:02.080Z,82.60
2018-05-31T03:25:29.530Z,83.40
2018-05-31T03:27:57.733Z,84.60
2018-05-31T03:30:25.177Z,83.80
2018-05-31T03:32:52.606Z,84.40
2018-05-31T03:35:20.058Z,82.90
2018-05-31T03:37:47.515Z,83.00
2018-05-31T03:40:14.975Z,83.80
2018-05-31T03:42:42.402Z,83.80
2018-05-31T03:45:09.843Z,83.50
2018-05-31T03:47:37.273Z,83.10
2018-05-31T03:50:04.722Z,82.20
2018-05-31T03:52:32.170Z,81.50
2018-05-31T03:54:59.626Z,82.10
2018-05-31T03:57:27.069Z,82.50
2018-05-31T03:59:54.494Z,82.10
2018-05-31T04:02:21.938Z,82.40
2018-05-31T04:04:49.396Z,83.10
2018-05-31T04:07:16.830Z,82.90
2018-05-31T04:09:44.282Z,83.10
2018-05-31T04:12:12.557Z,82.80
2018-05-31T04:14:40.002Z,82.70
2018-05-31T04:17:07.455Z,82.10
2018-05-31T04:19:34.903Z,81.50
2018-05-31T04:22:02.339Z,81.10
2018-05-31T04:24:29.781Z,81.60
2018-05-31T04:26:57.237Z,81.00
2018-05-31T04:29:24.691Z,81.00
2018-05-31T04:31:52.898Z,80.30
2018-05-31T04:34:20.330Z,80.20
2018-05-31T04:36:47.773Z,80.00
2018-05-31T04:39:15.223Z,80.30
2018-05-31T04:41:42.714Z,80.50
2018-05-31T04:44:10.139Z,79.00
2018-05-31T04:46:37.578Z,77.20
2018-05-31T04:49:05.027Z,78.20
2018-05-31T04:51:32.473Z,78.70
2018-05-31T04:53:59.903Z,76.80
2018-05-31T04:56:27.358Z,76.10
2018-05-31T04:58:54.798Z,76.50
2018-05-31T05:01:22.234Z,74.40
2018-05-31T05:03:49.669Z,74.50
2018-05-31T05:06:17.119Z,73.60
2018-05-31T05:08:44.601Z,74.90
2018-05-31T05:11:12.799Z,74.20
2018-05-31T05:13:40.241Z,74.20
2018-05-31T05:16:07.698Z,73.90
2018-05-31T05:18:35.150Z,73.10
2018-05-31T05:21:02.585Z,73.50
2018-05-31T05:23:30.034Z,70.90
2018-05-31T05:25:57.513Z,70.40
2018-05-31T05:28:25.726Z,66.60
2018-05-31T05:30:53.163Z,66.50
2018-05-31T05:33:20.602Z,65.10
2018-05-31T05:35:48.045Z,63.60
2018-05-31T05:38:15.514Z,63.50
2018-05-31T05:40:42.962Z,60.90
2018-05-31T05:43:10.395Z,58.40
2018-05-31T05:45:37.877Z,57.40
2018-05-31T05:48:05.312Z,55.40
2018-05-31T05:50:33.523Z,54.20
2018-05-31T05:53:00.959Z,54.20
2018-05-31T05:55:28.400Z,52.70
2018-05-31T05:57:55.843Z,52.10
2018-05-31T06:00:23.265Z,51.80
2018-05-31T06:02:50.718Z,51.70
2018-05-31T06:05:18.159Z,50.90
2018-05-31T06:07:45.604Z,50.50
2018-05-31T06:10:13.089Z,50.60
2018-05-31T06:12:40.465Z,50.70
2018-05-31T06:15:08.665Z,49.10
2018-05-31T06:17:36.123Z,49.10
2018-05-31T06:20:03.546Z,49.40
2018-05-31T06:22:30.990Z,49.70
2018-05-31T06:24:58.431Z,49.10
2018-05-31T06:27:25.886Z,47.50
2018-05-31T06:29:53.338Z,47.20
2018-05-31T06:32:20.794Z,47.40
2018-05-31T06:34:48.222Z,46.90
2018-05-31T06:37:15.767Z,46.40
2018-05-31T06:39:43.903Z,45.00
2018-05-31T06:42:11.350Z,44.80
2018-05-31T06:44:38.800Z,44.70
2018-05-31T06:47:06.244Z,46.50
2018-05-31T06:49:33.672Z,44.50
2018-05-31T06:52:01.108Z,44.10
2018-05-31T06:54:28.543Z,43.40
2018-05-31T06:56:55.989Z,44.50
2018-05-31T06:59:23.414Z,42.80
2018-05-31T07:01:50.864Z,43.70
2018-05-31T07:04:18.286Z,40.70
2018-05-31T07:06:46.493Z,39.90
2018-05-31T07:09:13.919Z,39.80
2018-05-31T07:11:41.358Z,40.70
2018-05-31T07:14:08.802Z,40.40
2018-05-31T07:16:36.243Z,41.60
2018-05-31T07:19:03.674Z,39.70
2018-05-31T07:21:31.118Z,38.70
2018-05-31T07:23:58.555Z,39.00
2018-05-31T07:26:25.996Z,38.10
2018-05-31T07:28:54.194Z,37.90
2018-05-31T07:31:21.666Z,38.00
2018-05-31T07:33:49.091Z,36.40
2018-05-31T07:36:16.572Z,36.10
2018-05-31T07:38:44.009Z,37.00
2018-05-31T07:41:11.453Z,36.40
2018-05-31T07:43:39.654Z,32.90
2018-05-31T07:46:07.096Z,33.40
2018-05-31T07:48:34.548Z,33.80
2018-05-31T07:51:01.987Z,33.30
2018-05-31T07:53:29.510Z,33.30
2018-05-31T07:55:56.970Z,33.50
2018-05-31T07:58:24.490Z,34.00
2018-05-31T08:00:51.899Z,33.60
2018-05-31T08:03:19.359Z,33.80
2018-05-31T08:05:46.823Z,34.20
2018-05-31T08:08:15.030Z,34.50
2018-05-31T08:10:42.457Z,34.70
2018-05-31T08:13:09.918Z,33.90
2018-05-31T08:15:37.341Z,33.60
2018-05-31T08:18:04.795Z,32.70
2018-05-31T08:20:32.231Z,31.70
2018-05-31T08:22:59.686Z,30.60
2018-05-31T08:25:27.167Z,30.70
2018-05-31T08:27:55.372Z,32.70
2018-05-31T08:30:23.529Z,32.00
2018-05-31T08:32:51.006Z,31.50
2018-05-31T08:35:18.430Z,30.50
2018-05-31T08:37:45.883Z,30.80
2018-05-31T08:40:13.342Z,31.30
2018-05-31T08:42:40.781Z,31.20
2018-05-31T08:45:08.217Z,31.20
2018-05-31T08:47:35.663Z,30.50
2018-05-31T08:50:03.119Z,30.60
2018-05-31T08:52:31.367Z,31.20
2018-05-31T08:54:58.805Z,31.00
2018-05-31T08:57:26.304Z,30.60
2018-05-31T08:59:53.711Z,30.30
2018-05-31T09:02:21.153Z,30.70
2018-05-31T09:04:48.595Z,30.00
2018-05-31T09:07:16.086Z,30.40
2018-05-31T09:09:43.539Z,30.00
2018-05-31T09:12:10.968Z,29.10
2018-05-31T09:14:38.408Z,29.40
2018-05-31T09:17:05.870Z,28.30
2018-05-31T09:19:33.314Z,30.00
2018-05-31T09:22:00.806Z,28.90
2018-05-31T09:24:28.261Z,28.80
2018-05-31T09:26:56.473Z,30.10
2018-05-31T09:29:23.922Z,30.10
2018-05-31T09:31:51.366Z,29.90
2018-05-31T09:34:18.825Z,30.90
2018-05-31T09:36:46.282Z,32.20
2018-05-31T09:39:14.494Z,32.10
2018-05-31T09:41:41.947Z,32.10
2018-05-31T09:44:09.408Z,31.30
2018-05-31T09:46:36.877Z,30.50
2018-05-31T09:49:04.306Z,29.90
2018-05-31T09:51:32.510Z,29.10
2018-05-31T09:53:59.956Z,29.00
2018-05-31T09:56:27.397Z,29.30
2018-05-31T09:58:54.854Z,29.90
2018-05-31T10:01:22.426Z,29.70
2018-05-31T10:03:49.903Z,28.80
2018-05-31T10:06:17.347Z,29.70
2018-05-31T10:08:44.806Z,29.10
2018-05-31T10:11:12.316Z,29.20
2018-05-31T10:13:40.543Z,29.30
2018-05-31T10:16:07.979Z,29.30
2018-05-31T10:18:35.454Z,28.40
2018-05-31T10:21:02.885Z,29.50
2018-05-31T10:23:30.370Z,29.80
2018-05-31T10:25:58.562Z,29.50
2018-05-31T10:28:26.016Z,29.50
2018-05-31T10:30:53.458Z,29.10
2018-05-31T10:33:20.917Z,30.20
2018-05-31T10:35:48.374Z,31.20
2018-05-31T10:38:15.826Z,30.90
2018-05-31T10:40:43.273Z,33.20
2018-05-31T10:43:11.528Z,32.10
2018-05-31T10:45:39.721Z,31.50
2018-05-31T10:48:07.194Z,31.50
2018-05-31T10:50:34.622Z,32.60
2018-05-31T10:53:02.086Z,33.50
2018-05-31T10:55:29.523Z,33.70
2018-05-31T10:57:56.990Z,33.20
2018-05-31T11:00:24.442Z,33.20
2018-05-31T11:02:52.674Z,34.20
2018-05-31T11:05:20.901Z,33.90
2018-05-31T11:07:48.358Z,33.90
2018-05-31T11:10:15.863Z,35.60
2018-05-31T11:12:43.309Z,36.40
2018-05-31T11:15:11.533Z,36.50
2018-05-31T11:17:38.990Z,36.40
2018-05-31T11:20:06.451Z,37.20
2018-05-31T11:22:34.662Z,37.40
2018-05-31T11:25:02.128Z,37.40
2018-05-31T11:27:29.596Z,38.20
2018-05-31T11:29:57.043Z,38.50
2018-05-31T11:32:25.278Z,38.40
2018-05-31T11:34:52.727Z,38.30
2018-05-31T11:37:20.190Z,37.50
2018-05-31T11:39:48.393Z,36.40
2018-05-31T11:42:15.855Z,36.90
2018-05-31T11:44:43.308Z,36.80
2018-05-31T11:47:10.755Z,36.00
2018-05-31T11:49:38.213Z,36.80
2018-05-31T11:52:06.414Z,36.70
2018-05-31T11:54:33.924Z,36.70
2018-05-31T11:57:02.127Z,36.60
2018-05-31T11:59:29.591Z,36.50
2018-05-31T12:01:57.045Z,36.00
2018-05-31T12:04:24.481Z,36.10
2018-05-31T12:06:51.930Z,35.60
2018-05-31T12:09:19.415Z,36.50
2018-05-31T12:11:46.858Z,35.60
2018-05-31T12:14:14.330Z,35.40
2018-05-31T12:16:41.778Z,34.50
2018-05-31T12:19:09.235Z,35.60
2018-05-31T12:21:36.677Z,34.20
2018-05-31T12:24:04.142Z,34.30
2018-05-31T12:26:31.590Z,35.30
2018-05-31T12:28:59.810Z,34.70
2018-05-31T12:31:27.246Z,34.70
2018-05-31T12:33:54.703Z,33.70
2018-05-31T12:36:22.138Z,34.60
2018-05-31T12:38:49.594Z,35.10
2018-05-31T12:41:17.026Z,34.00
2018-05-31T12:43:44.510Z,35.30
2018-05-31T12:46:12.710Z,34.70
2018-05-31T12:48:40.169Z,34.50
2018-05-31T12:51:07.616Z,34.60
2018-05-31T12:53:35.104Z,34.80
2018-05-31T12:56:02.526Z,34.70
2018-05-31T12:58:30.017Z,33.80
2018-05-31T13:00:57.522Z,35.20
2018-05-31T13:03:24.961Z,34.50
2018-05-31T13:05:52.485Z,33.30
2018-05-31T13:08:19.882Z,34.60
2018-05-31T13:10:47.328Z,36.50
2018-05-31T13:13:14.776Z,35.80
2018-05-31T13:15:42.201Z,36.20
2018-05-31T13:18:10.411Z,36.20
2018-05-31T13:20:37.846Z,36.00
2018-05-31T13:23:05.316Z,35.20
2018-05-31T13:25:32.757Z,35.60
2018-05-31T13:28:00.194Z,34.00
2018-05-31T13:30:27.638Z,35.40
2018-05-31T13:32:55.093Z,35.70
2018-05-31T13:35:22.539Z,36.00
2018-05-31T13:37:50.778Z,36.20
2018-05-31T13:40:18.239Z,36.70
2018-05-31T13:42:45.693Z,35.70
2018-05-31T13:45:13.907Z,33.60
2018-05-31T13:47:41.450Z,33.50
2018-05-31T13:50:08.886Z,35.70
2018-05-31T13:52:36.342Z,35.90
2018-05-31T13:55:03.802Z,34.40
2018-05-31T13:57:31.282Z,34.40
2018-05-31T13:59:58.736Z,33.80
2018-05-31T14:02:26.189Z,34.10
2018-05-31T14:04:53.658Z,31.60
2018-05-31T14:07:21.102Z,31.10
2018-05-31T14:09:48.538Z,32.90
2018-05-31T14:12:15.982Z,33.80
2018-05-31T14:14:43.432Z,34.00
2018-05-31T14:17:10.886Z,34.30
2018-05-31T14:19:38.349Z,34.10
2018-05-31T14:22:05.793Z,34.20
2018-05-31T14:24:34.002Z,33.90
2018-05-31T14:27:01.439Z,33.90
2018-05-31T14:29:28.934Z,32.80
2018-05-31T14:31:56.406Z,31.10
2018-05-31T14:34:23.860Z,30.60
2018-05-31T14:36:51.306Z,31.20
2018-05-31T14:39:18.759Z,31.30
2018-05-31T14:41:46.202Z,32.10
2018-05-31T14:44:13.681Z,33.20
2018-05-31T14:46:41.133Z,33.80
2018-05-31T14:49:08.589Z,33.40
2018-05-31T14:51:36.021Z,30.80
2018-05-31T14:54:03.455Z,31.80
2018-05-31T14:56:30.886Z,30.60
2018-05-31T14:58:58.369Z,30.30
2018-05-31T15:01:26.594Z,30.60
2018-05-31T15:03:54.049Z,30.60
2018-05-31T15:06:21.509Z,30.20
2018-05-31T15:08:49.711Z,29.30
2018-05-31T15:11:17.153Z,29.30
2018-05-31T15:13:45.193Z,29.50
2018-05-31T15:16:12.674Z,29.30
2018-05-31T15:18:40.114Z,29.50
2018-05-31T15:21:07.568Z,28.70
2018-05-31T15:23:35.031Z,29.00
2018-05-31T15:26:02.467Z,28.10
2018-05-31T15:28:29.909Z,27.10
2018-05-31T15:30:57.344Z,26.10
2018-05-31T15:33:24.786Z,25.30
2018-05-31T15:35:52.226Z,26.50
2018-05-31T15:38:19.686Z,27.70
2018-05-31T15:40:47.159Z,27.50
2018-05-31T15:43:14.598Z,27.00
2018-05-31T15:45:42.049Z,24.90
2018-05-31T15:48:09.498Z,24.70
2018-05-31T15:50:36.957Z,24.50
2018-05-31T15:53:04.407Z,24.20
2018-05-31T15:55:31.850Z,24.90
2018-05-31T15:57:59.308Z,24.20
2018-05-31T16:00:26.759Z,25.50
2018-05-31T16:02:54.214Z,25.90
2018-05-31T16:05:21.676Z,25.50
2018-05-31T16:07:49.905Z,24.70
2018-05-31T16:10:17.347Z,24.70
2018-05-31T16:12:44.820Z,22.20
2018-05-31T16:15:13.014Z,24.60
2018-05-31T16:17:40.465Z,24.60
2018-05-31T16:20:07.929Z,24.50
2018-05-31T16:22:35.374Z,24.70
2018-05-31T16:25:02.824Z,25.30
2018-05-31T16:27:30.279Z,27.40
2018-05-31T16:29:57.736Z,29.90
2018-05-31T16:32:25.959Z,32.60
2018-05-31T16:34:53.418Z,32.60
2018-05-31T16:37:20.873Z,33.60
2018-05-31T16:39:48.337Z,34.70
2018-05-31T16:42:15.787Z,34.40
2018-05-31T16:44:43.239Z,31.50
2018-05-31T16:47:10.720Z,30.70
2018-05-31T16:49:38.159Z,28.00
2018-05-31T16:52:05.622Z,28.30
2018-05-31T16:54:33.090Z,28.00
2018-05-31T16:57:01.297Z,28.20
2018-05-31T16:59:28.751Z,28.20
2018-05-31T17:01:56.269Z,28.20
2018-05-31T17:04:23.690Z,28.60
2018-05-31T17:06:51.135Z,28.90
2018-05-31T17:09:18.573Z,29.90
2018-05-31T17:11:46.036Z,32.40
2018-05-31T17:14:13.469Z,33.70
2018-05-31T17:16:40.914Z,34.10
2018-05-31T17:19:08.414Z,34.60
2018-05-31T17:21:35.884Z,34.50
2018-05-31T17:24:03.386Z,34.80
2018-05-31T17:26:30.826Z,35.80
2018-05-31T17:28:58.381Z,36.90
2018-05-31T17:31:25.812Z,37.40
2018-05-31T17:33:53.337Z,37.80
2018-05-31T17:36:20.890Z,38.10
2018-05-31T17:38:48.335Z,38.10
2018-05-31T17:41:15.769Z,38.40
2018-05-31T17:43:43.279Z,38.10
2018-05-31T17:46:10.718Z,38.70
2018-05-31T17:48:38.169Z,39.10
2018-05-31T17:51:05.801Z,39.90
2018-05-31T17:53:33.258Z,40.60
2018-05-31T17:56:00.786Z,42.20
2018-05-31T17:58:28.237Z,39.00
2018-05-31T18:00:55.684Z,40.00
2018-05-31T18:03:23.130Z,41.10
2018-05-31T18:05:50.575Z,42.10
2018-05-31T18:08:18.031Z,43.60
2018-05-31T18:10:45.518Z,45.00
2018-05-31T18:13:12.989Z,45.50
2018-05-31T18:15:40.449Z,45.60
2018-05-31T18:18:07.904Z,46.20
2018-05-31T18:20:35.342Z,46.90
2018-05-31T18:23:02.804Z,47.20
2018-05-31T18:25:30.235Z,47.10
2018-05-31T18:27:57.796Z,47.00
2018-05-31T18:30:25.230Z,46.50
2018-05-31T18:32:52.685Z,46.50
2018-05-31T18:35:20.127Z,46.60
2018-05-31T18:37:47.585Z,46.60
2018-05-31T18:40:15.038Z,45.80
2018-05-31T18:42:42.466Z,46.10
2018-05-31T18:45:09.910Z,45.40
2018-05-31T18:47:37.376Z,45.30
2018-05-31T18:50:04.811Z,45.30
2018-05-31T18:52:32.255Z,45.70
2018-05-31T18:54:59.709Z,46.20
2018-05-31T18:57:27.153Z,46.80
2018-05-31T18:59:54.595Z,48.60
2018-05-31T19:02:22.820Z,48.60
2018-05-31T19:04:50.250Z,48.60
2018-05-31T19:07:17.703Z,48.40
2018-05-31T19:09:45.140Z,48.20
2018-05-31T19:12:12.579Z,49.30
2018-05-31T19:14:40.053Z,50.60
2018-05-31T19:17:07.482Z,51.20
2018-05-31T19:19:40.651Z,51.20
2018-05-31T19:22:08.133Z,51.60
2018-05-31T19:24:42.019Z,50.20
2018-05-31T19:27:09.454Z,50.10
2018-05-31T19:29:36.933Z,51.90
2018-05-31T19:32:04.378Z,50.60
2018-05-31T19:34:31.808Z,49.90
2018-05-31T19:37:05.658Z,51.10
2018-05-31T19:39:33.113Z,51.10
2018-05-31T19:42:00.569Z,50.20
2018-05-31T19:44:33.599Z,52.80
2018-05-31T19:47:01.039Z,52.50
2018-05-31T19:49:28.535Z,52.60
2018-05-31T19:52:01.570Z,51.40
2018-05-31T19:54:29.016Z,53.70
2018-05-31T19:56:57.213Z,56.80
2018-05-31T19:59:30.246Z,56.10
2018-05-31T20:02:03.434Z,58.10
2018-05-31T20:04:30.886Z,59.70
2018-05-31T20:06:58.342Z,60.70
2018-05-31T20:09:25.804Z,61.90
2018-05-31T20:11:54.860Z,61.30
2018-05-31T20:14:22.322Z,62.00
2018-05-31T20:16:49.764Z,59.90
2018-05-31T20:19:17.248Z,60.60
2018-05-31T20:21:45.628Z,61.70
2018-05-31T20:24:13.083Z,63.60
2018-05-31T20:26:40.522Z,63.00
2018-05-31T20:29:07.972Z,64.80
2018-05-31T20:31:35.407Z,65.00
2018-05-31T20:34:02.845Z,63.90
2018-05-31T20:36:30.278Z,62.70
2018-05-31T20:38:58.246Z,62.20
2018-05-31T20:41:25.709Z,62.00
2018-05-31T20:43:53.170Z,60.50
2018-05-31T20:46:21.405Z,59.30
2018-05-31T20:48:48.860Z,59.30
2018-05-31T20:51:17.095Z,61.80
2018-05-31T20:56:18.437Z,62.20
2018-05-31T20:58:45.886Z,60.80
2018-05-31T21:01:13.346Z,61.50
2018-05-31T21:03:41.547Z,61.40
2018-05-31T21:06:09.001Z,61.40
2018-05-31T21:08:36.448Z,60.90
2018-05-31T21:11:03.897Z,59.60
2018-05-31T21:13:31.364Z,60.40
2018-05-31T21:15:58.891Z,59.10
2018-05-31T21:18:26.324Z,60.10
2018-05-31T21:20:54.330Z,60.50
2018-05-31T21:23:22.550Z,58.60
2018-05-31T21:25:49.996Z,58.60
2018-05-31T21:28:17.446Z,57.90
2018-05-31T21:30:44.886Z,57.30
2018-05-31T21:33:12.367Z,56.40
2018-05-31T21:35:40.709Z,54.50
2018-05-31T21:38:08.894Z,54.50
2018-05-31T21:40:36.351Z,54.70
2018-05-31T21:43:03.806Z,56.60
2018-05-31T21:45:31.266Z,56.20
2018-05-31T21:47:58.718Z,56.10
2018-05-31T21:50:26.163Z,58.00
2018-05-31T21:52:53.654Z,57.30
2018-05-31T21:55:21.897Z,57.10
2018-05-31T21:57:50.105Z,57.10
2018-05-31T22:00:44.926Z,57.00
2018-05-31T22:03:13.047Z,56.50
2018-05-31T22:05:40.558Z,56.70
2018-05-31T22:08:07.932Z,58.10
2018-05-31T22:10:35.373Z,58.10
2018-05-31T22:13:02.821Z,57.30
2018-05-31T22:15:30.275Z,57.60
2018-05-31T22:17:57.710Z,57.50
2018-05-31T22:20:25.910Z,57.50
2018-05-31T22:22:53.362Z,57.50
2018-05-31T22:25:21.591Z,56.60
2018-05-31T22:27:49.053Z,56.60
2018-05-31T22:30:16.504Z,57.00
2018-05-31T22:32:44.731Z,57.80
2018-05-31T22:35:12.179Z,57.70
2018-05-31T22:37:39.627Z,57.00
2018-05-31T22:40:07.062Z,56.70
2018-05-31T22:42:34.508Z,56.70
2018-05-31T22:45:01.966Z,57.60
2018-05-31T22:47:29.387Z,58.10
2018-05-31T22:49:56.831Z,58.80
2018-05-31T22:52:24.262Z,58.80
2018-05-31T22:54:52.463Z,58.20
2018-05-31T22:57:20.689Z,59.40
2018-05-31T22:59:48.127Z,59.40
2018-05-31T23:02:15.587Z,60.00
2018-05-31T23:04:43.039Z,61.20
2018-05-31T23:07:10.468Z,61.60
2018-05-31T23:09:37.919Z,62.00
2018-05-31T23:12:05.362Z,63.10
2018-05-31T23:14:32.801Z,64.80
2018-05-31T23:17:00.251Z,65.30
2018-05-31T23:19:27.723Z,64.40
2018-05-31T23:21:55.934Z,64.30
2018-05-31T23:24:23.372Z,64.30
2018-05-31T23:26:50.807Z,64.70
2018-05-31T23:29:18.251Z,64.70
2018-05-31T23:31:45.717Z,65.50
2018-05-31T23:34:13.170Z,64.80
2018-05-31T23:36:40.634Z,64.40
2018-05-31T23:39:08.841Z,65.10
2018-05-31T23:41:36.291Z,65.10
2018-05-31T23:44:03.748Z,65.30
2018-05-31T23:46:31.181Z,65.50
2018-05-31T23:48:58.627Z,65.20
2018-05-31T23:51:26.563Z,65.50
2018-05-31T23:53:53.996Z,65.00
2018-05-31T23:56:21.451Z,64.00
2018-05-31T23:58:48.877Z,63.50
